Time;durP1;ratioP1;P1;durP2;ratioP2;P2;SDS_P1;SDS_P2;PMS_P1;PMS_P2;Temp;Humidity;BMP_temperature;BMP_pressure;BME280_temperature;BME280_humidity;BME280_pressure;Samples;Min_cycle;Max_cycle;Signal;HPM_P1;HPM_P2
2023/05/27 00:00:12;;;;;;;11.37;5.43;;;;;;;15.43;86.95;101000.84;5054242;28;20571;-76
2023/05/27 00:02:38;;;;;;;8.57;5.07;;;;;;;15.33;87.63;101003.59;5053352;28;20196;-76
2023/05/27 00:05:04;;;;;;;12.17;5.33;;;;;;;15.29;87.03;100995.84;5055230;28;20211;-76
2023/05/27 00:07:30;;;;;;;8.67;5.10;;;;;;;15.22;87.20;100998.56;5069793;28;20879;-76
2023/05/27 00:09:56;;;;;;;14.03;5.97;;;;;;;15.23;86.94;100992.47;5055390;28;20206;-76
2023/05/27 00:12:21;;;;;;;9.43;5.30;;;;;;;15.21;86.56;100996.00;5074023;28;20944;-76
2023/05/27 00:14:47;;;;;;;10.40;5.40;;;;;;;15.14;86.96;100994.34;5071624;28;20203;-77
2023/05/27 00:17:13;;;;;;;11.07;5.93;;;;;;;15.21;86.03;100988.16;5051958;28;20498;-76
2023/05/27 00:19:42;;;;;;;8.33;5.17;;;;;;;15.12;86.77;100989.19;5054975;28;20212;-76
2023/05/27 00:22:08;;;;;;;11.27;5.47;;;;;;;15.02;87.50;100995.44;5073070;28;20216;-76
2023/05/27 00:24:39;;;;;;;9.10;5.10;;;;;;;15.02;87.37;100996.28;5054110;28;20307;-76
2023/05/27 00:27:10;;;;;;;8.20;5.33;;;;;;;14.96;87.47;100998.13;5053269;28;20231;-76
2023/05/27 00:29:36;;;;;;;10.67;5.33;;;;;;;14.90;87.67;100992.13;5058509;28;20303;-76
2023/05/27 00:32:03;;;;;;;10.30;5.37;;;;;;;14.92;87.96;101003.38;5054018;28;20274;-76
2023/05/27 00:34:29;;;;;;;10.67;5.40;;;;;;;14.95;87.66;100999.88;5073780;28;20187;-77
2023/05/27 00:36:55;;;;;;;9.80;5.73;;;;;;;14.89;88.45;100995.63;5073221;28;20197;-75
2023/05/27 00:39:21;;;;;;;9.17;5.70;;;;;;;14.83;88.65;100989.63;5053652;28;20590;-78
2023/05/27 00:41:48;;;;;;;9.33;5.73;;;;;;;14.84;88.51;100992.22;5050710;28;20185;-76
2023/05/27 00:44:14;;;;;;;7.50;5.00;;;;;;;14.90;87.96;100984.31;5054953;28;20286;-76
2023/05/27 00:46:40;;;;;;;11.17;6.10;;;;;;;14.84;87.86;100987.03;5054888;28;20258;-77
2023/05/27 00:49:05;;;;;;;11.77;5.30;;;;;;;14.78;87.98;100987.09;5051610;28;20205;-76
2023/05/27 00:51:31;;;;;;;7.60;5.20;;;;;;;14.76;87.32;100987.13;5072007;28;20187;-76
2023/05/27 00:53:56;;;;;;;9.83;5.43;;;;;;;14.70;88.36;100988.97;5056074;28;20182;-76
2023/05/27 00:56:22;;;;;;;12.20;5.97;;;;;;;14.70;87.72;100991.59;5072995;28;20177;-77
2023/05/27 00:58:47;;;;;;;9.90;5.50;;;;;;;14.76;86.51;100989.75;5069896;28;20218;-76
2023/05/27 01:01:13;;;;;;;8.77;5.23;;;;;;;14.77;86.26;100985.38;5070746;28;20194;-77
2023/05/27 01:03:41;;;;;;;12.23;5.67;;;;;;;14.76;86.02;100983.66;5052990;28;20186;-76
2023/05/27 01:06:28;;;;;;;9.73;5.63;;;;;;;14.77;86.40;100994.06;5070073;28;20242;-76
2023/05/27 01:09:08;;;;;;;10.10;5.23;;;;;;;14.72;85.59;100987.22;5069981;28;20209;-76
2023/05/27 01:11:42;;;;;;;10.73;5.20;;;;;;;14.64;85.17;100979.47;5067516;28;20667;-76
2023/05/27 01:14:10;;;;;;;9.30;5.23;;;;;;;14.64;85.46;100990.75;5057060;28;20238;-77
2023/05/27 01:16:39;;;;;;;10.10;4.87;;;;;;;14.70;84.21;100987.22;5074391;28;20640;-75
2023/05/27 01:19:11;;;;;;;6.90;4.53;;;;;;;14.56;85.32;100992.63;5072589;28;20230;-75
2023/05/27 01:21:39;;;;;;;12.47;5.40;;;;;;;14.56;84.92;100984.81;5057288;28;20184;-76
2023/05/27 01:24:05;;;;;;;10.33;4.90;;;;;;;14.50;85.44;100979.66;5077319;28;20256;-76
2023/05/27 01:26:31;;;;;;;11.03;4.80;;;;;;;14.50;85.16;100976.22;5053212;28;20182;-76
2023/05/27 01:28:57;;;;;;;9.27;4.50;;;;;;;14.43;86.01;100978.03;5070644;28;20588;-77
2023/05/27 01:31:40;;;;;;;10.80;5.27;;;;;;;14.50;84.58;100968.41;5051231;28;20193;-75
2023/05/27 01:34:09;;;;;;;8.93;5.00;;;;;;;14.45;85.46;100966.72;5053212;28;20271;-76
2023/05/27 01:36:42;;;;;;;7.60;4.77;;;;;;;14.40;85.55;100963.31;5069778;28;20210;-77
2023/05/27 01:39:11;;;;;;;9.57;4.90;;;;;;;14.31;86.14;100961.69;5069360;28;20694;-76
2023/05/27 01:41:36;;;;;;;7.97;4.77;;;;;;;14.28;86.10;100961.75;5050268;28;20199;-76
2023/05/27 01:44:04;;;;;;;7.57;4.83;;;;;;;14.28;86.60;100960.88;5071565;28;20221;-75
2023/05/27 01:46:29;;;;;;;9.87;4.97;;;;;;;14.21;86.46;100954.03;5068976;28;20666;-77
2023/05/27 01:48:55;;;;;;;10.47;4.97;;;;;;;14.18;86.96;100955.81;5072563;28;20657;-77
2023/05/27 01:51:20;;;;;;;9.23;5.00;;;;;;;14.08;87.02;100966.34;5071295;28;20241;-77
2023/05/27 01:53:46;;;;;;;10.93;5.23;;;;;;;14.05;86.83;100966.38;5056386;28;20788;-76
2023/05/27 01:56:11;;;;;;;8.37;4.60;;;;;;;13.99;87.14;100960.34;5070520;28;20246;-76
2023/05/27 01:58:36;;;;;;;9.77;5.20;;;;;;;13.96;87.30;100957.81;5056080;28;20202;-76
2023/05/27 02:01:02;;;;;;;12.90;5.07;;;;;;;13.91;87.34;100953.56;5049698;28;20193;-75
2023/05/27 02:03:27;;;;;;;8.90;4.90;;;;;;;13.83;87.85;100951.88;5053725;28;20213;-77
2023/05/27 02:05:53;;;;;;;11.43;5.53;;;;;;;13.80;87.59;100951.91;5073643;28;20277;-76
2023/05/27 02:08:18;;;;;;;13.30;6.43;;;;;;;13.81;87.48;100951.03;5073736;28;20182;-76
2023/05/27 02:10:43;;;;;;;6.87;4.53;;;;;;;13.80;87.70;100954.53;5048699;28;20193;-76
2023/05/27 02:13:09;;;;;;;7.53;4.80;;;;;;;13.77;87.65;100948.50;5070917;28;20230;-75
2023/05/27 02:15:34;;;;;;;9.97;5.17;;;;;;;13.75;87.88;100945.06;5049833;28;20223;-76
2023/05/27 02:18:00;;;;;;;9.27;4.73;;;;;;;13.69;87.54;100941.63;5070855;28;20589;-76
2023/05/27 02:20:26;;;;;;;9.03;5.03;;;;;;;13.67;87.69;100943.41;5052579;28;20657;-76
2023/05/27 02:22:51;;;;;;;11.87;5.80;;;;;;;13.65;87.82;100944.28;5070212;28;20186;-76
2023/05/27 02:25:17;;;;;;;8.40;4.90;;;;;;;13.61;88.08;100946.06;5067062;28;20430;-76
2023/05/27 02:27:47;;;;;;;8.90;4.60;;;;;;;13.57;88.09;100942.66;5072461;28;20517;-76
2023/05/27 02:30:13;;;;;;;10.57;5.40;;;;;;;13.55;88.28;100944.41;5074653;28;20686;-75
2023/05/27 02:32:38;;;;;;;11.33;5.40;;;;;;;13.55;88.32;100940.94;5068036;28;20189;-75
2023/05/27 02:35:04;;;;;;;11.27;4.90;;;;;;;13.54;87.92;100945.28;5057321;28;20195;-75
2023/05/27 02:37:29;;;;;;;9.57;4.70;;;;;;;13.48;88.70;100942.72;5056839;28;20182;-76
2023/05/27 02:39:56;;;;;;;8.50;4.40;;;;;;;13.48;88.15;100940.13;5058039;28;20643;-75
2023/05/27 02:42:21;;;;;;;8.87;5.17;;;;;;;13.43;88.16;100936.75;5075314;28;20205;-75
2023/05/27 02:44:47;;;;;;;11.87;5.57;;;;;;;13.41;88.30;100938.50;5053723;28;20205;-76
2023/05/27 02:47:12;;;;;;;10.93;5.13;;;;;;;13.42;87.67;100940.22;5072471;28;20232;-77
2023/05/27 02:49:37;;;;;;;8.47;4.80;;;;;;;13.38;87.30;100949.75;5072795;28;20212;-75
2023/05/27 02:52:04;;;;;;;13.23;5.17;;;;;;;13.40;87.21;100945.41;5075561;28;20186;-76
2023/05/27 02:54:29;;;;;;;8.90;4.83;;;;;;;13.39;87.36;100948.00;5072633;28;20657;-77
2023/05/27 02:56:54;;;;;;;7.70;4.50;;;;;;;13.35;87.43;100946.31;5069890;28;20201;-76
2023/05/27 02:59:20;;;;;;;11.07;5.40;;;;;;;13.34;87.57;100955.84;5057813;28;20234;-75
2023/05/27 03:01:45;;;;;;;10.57;5.47;;;;;;;13.34;87.58;100947.19;5055147;28;20207;-76
2023/05/27 03:04:11;;;;;;;8.37;4.57;;;;;;;13.30;87.89;100945.50;5059035;28;20229;-75
2023/05/27 03:06:36;;;;;;;9.57;5.20;;;;;;;13.33;87.85;100946.34;5073341;28;20276;-76
2023/05/27 03:09:03;;;;;;;10.87;4.83;;;;;;;13.34;87.63;100941.97;5050998;28;20214;-76
2023/05/27 03:11:29;;;;;;;8.37;5.37;;;;;;;13.30;87.78;100940.31;5058556;28;20196;-75
2023/05/27 03:13:54;;;;;;;9.37;5.03;;;;;;;13.25;88.04;100942.94;5071772;28;20194;-76
2023/05/27 03:16:20;;;;;;;8.23;4.87;;;;;;;13.24;88.16;100949.00;5073890;28;20318;-74
2023/05/27 03:18:45;;;;;;;8.23;5.43;;;;;;;13.20;88.59;100948.19;5072250;28;20276;-75
2023/05/27 03:21:12;;;;;;;8.67;4.40;;;;;;;13.18;88.21;100942.13;5072605;28;20280;-75
2023/05/27 03:23:37;;;;;;;11.50;5.03;;;;;;;13.20;87.94;100942.13;5073305;28;20197;-75
2023/05/27 03:26:03;;;;;;;9.60;4.80;;;;;;;13.10;88.52;100944.78;5053355;28;20302;-75
2023/05/27 03:28:28;;;;;;;10.23;4.83;;;;;;;13.17;88.27;100948.19;5057291;28;20241;-75
2023/05/27 03:30:55;;;;;;;8.20;5.23;;;;;;;13.10;88.50;100951.75;5075119;28;20200;-75
2023/05/27 03:33:22;;;;;;;8.63;4.43;;;;;;;13.05;88.73;100951.78;5072262;28;20186;-77
2023/05/27 03:35:48;;;;;;;7.47;4.67;;;;;;;13.06;88.19;100953.50;5070682;28;20192;-75
2023/05/27 03:38:13;;;;;;;11.97;5.30;;;;;;;13.05;88.38;100944.00;5073304;28;20864;-75
2023/05/27 03:40:39;;;;;;;9.03;4.50;;;;;;;13.04;88.71;100954.38;5067976;28;20191;-75
2023/05/27 03:43:04;;;;;;;7.77;4.73;;;;;;;13.05;88.72;100954.38;5055854;28;20190;-75
2023/05/27 03:45:30;;;;;;;10.57;4.87;;;;;;;13.05;88.19;100957.00;5071886;28;20209;-75
2023/05/27 03:47:56;;;;;;;10.63;5.33;;;;;;;13.01;88.58;100957.03;5073114;28;20193;-76
2023/05/27 03:50:21;;;;;;;9.20;5.00;;;;;;;13.03;88.44;100960.44;5055108;28;20639;-76
2023/05/27 03:52:47;;;;;;;9.03;5.17;;;;;;;13.03;88.50;100956.13;5056801;28;20274;-75
2023/05/27 03:55:13;;;;;;;9.03;4.83;;;;;;;13.06;88.26;100953.50;5058796;28;21010;-75
2023/05/27 03:57:38;;;;;;;10.30;4.73;;;;;;;13.07;88.10;100957.84;5072184;28;20193;-75
2023/05/27 04:00:07;;;;;;;10.70;4.87;;;;;;;13.08;87.79;100958.69;5071366;28;20206;-75
2023/05/27 04:02:33;;;;;;;11.10;4.87;;;;;;;13.13;88.07;100958.66;5070162;28;20191;-74
2023/05/27 04:05:00;;;;;;;10.90;5.07;;;;;;;13.15;87.44;100956.91;5055908;28;20217;-75
2023/05/27 04:07:26;;;;;;;8.50;4.20;;;;;;;13.17;87.69;100955.16;5068088;28;20207;-75
2023/05/27 04:09:52;;;;;;;11.30;5.77;;;;;;;13.17;87.44;100956.00;5068202;28;21182;-78
2023/05/27 04:12:17;;;;;;;8.53;5.03;;;;;;;13.21;87.16;100956.84;5075309;28;20440;-75
2023/05/27 04:14:43;;;;;;;8.67;4.60;;;;;;;13.26;87.39;100953.34;5070131;28;20222;-75
2023/05/27 04:17:08;;;;;;;11.87;5.00;;;;;;;13.25;87.40;100951.59;5070970;28;20202;-75
2023/05/27 04:19:34;;;;;;;11.10;4.77;;;;;;;13.29;87.02;100957.63;5056686;28;20204;-75
2023/05/27 04:21:59;;;;;;;10.30;4.67;;;;;;;13.35;86.49;100946.31;5073281;28;20667;-75
2023/05/27 04:24:25;;;;;;;10.07;4.73;;;;;;;13.45;86.01;100949.72;5056352;28;20219;-75
2023/05/27 04:26:50;;;;;;;10.50;5.00;;;;;;;13.55;86.03;100948.72;5055825;28;20190;-75
2023/05/27 04:29:15;;;;;;;8.60;4.20;;;;;;;13.68;85.09;100947.75;5072339;28;22528;-76
2023/05/27 04:31:41;;;;;;;8.83;5.03;;;;;;;13.81;84.37;100955.41;5069578;28;20185;-76
2023/05/27 04:34:07;;;;;;;9.07;4.33;;;;;;;13.90;83.74;100944.03;5081258;28;20199;-77
2023/05/27 04:36:34;;;;;;;8.20;4.40;;;;;;;13.99;83.29;100951.69;5095987;28;20876;-76
2023/05/27 04:39:01;;;;;;;10.43;4.50;;;;;;;14.11;82.49;100951.53;5095926;28;20204;-77
2023/05/27 04:41:28;;;;;;;9.40;4.80;;;;;;;14.24;82.06;100944.44;5067147;28;20185;-74
2023/05/27 04:43:54;;;;;;;10.67;4.53;;;;;;;14.33;82.07;100944.31;5070993;28;20961;-75
2023/05/27 04:46:20;;;;;;;9.73;4.67;;;;;;;14.36;81.41;100948.63;5053727;28;20192;-76
2023/05/27 04:48:46;;;;;;;7.87;4.23;;;;;;;14.37;81.65;100942.50;5070682;28;20246;-76
2023/05/27 04:51:15;;;;;;;11.47;5.27;;;;;;;14.42;81.34;100943.31;5060665;28;20177;-76
2023/05/27 04:53:41;;;;;;;9.27;4.70;;;;;;;14.46;81.29;100946.72;5073272;28;20268;-77
2023/05/27 04:56:08;;;;;;;11.23;5.07;;;;;;;14.54;80.97;100941.41;5069477;28;21051;-75
2023/05/27 04:58:33;;;;;;;8.73;5.13;;;;;;;14.57;80.23;100941.38;5071382;28;20208;-75
2023/05/27 05:00:59;;;;;;;8.83;4.37;;;;;;;14.68;80.02;100941.25;5051049;28;20192;-76
2023/05/27 05:03:39;;;;;;;11.43;4.20;;;;;;;14.70;79.54;100955.94;5072799;28;20185;-74
2023/05/27 05:06:05;;;;;;;12.10;4.93;;;;;;;14.77;79.43;100941.09;5068237;28;20209;-77
2023/05/27 05:08:31;;;;;;;11.37;5.00;;;;;;;14.91;79.37;100943.47;5060389;28;20315;-75
2023/05/27 05:10:56;;;;;;;8.97;4.73;;;;;;;15.08;78.35;100953.63;5050895;28;20173;-77
2023/05/27 05:13:22;;;;;;;10.00;4.37;;;;;;;15.21;77.30;100949.91;5068585;28;20249;-76
2023/05/27 05:15:47;;;;;;;9.77;4.70;;;;;;;15.42;77.10;100950.41;5066062;28;20185;-77
2023/05/27 05:18:13;;;;;;;9.93;4.70;;;;;;;15.48;77.00;100945.09;5067744;28;20656;-75
2023/05/27 05:20:39;;;;;;;11.37;4.73;;;;;;;15.63;76.55;100943.91;5067112;28;20182;-76
2023/05/27 05:23:06;;;;;;;7.83;4.27;;;;;;;15.81;76.24;100939.22;5052017;28;20191;-76
2023/05/27 05:25:37;;;;;;;10.30;4.43;;;;;;;15.86;76.30;100945.25;5070519;28;20223;-76
2023/05/27 05:28:03;;;;;;;9.17;4.40;;;;;;;15.93;75.67;100948.59;5067669;28;20181;-76
2023/05/27 05:30:28;;;;;;;10.87;4.83;;;;;;;16.04;75.46;100937.91;5071522;28;20180;-76
2023/05/27 05:32:54;;;;;;;9.40;4.63;;;;;;;16.10;75.43;100945.63;5066096;28;20190;-77
2023/05/27 05:35:19;;;;;;;11.13;4.53;;;;;;;16.27;74.99;100940.91;5068976;28;20288;-76
2023/05/27 05:37:45;;;;;;;13.10;4.63;;;;;;;16.48;74.64;100948.28;5066142;28;20185;-76
2023/05/27 05:40:11;;;;;;;9.37;4.00;;;;;;;16.72;74.78;100936.41;5052585;28;20211;-76
2023/05/27 05:42:36;;;;;;;9.37;4.03;;;;;;;16.67;74.00;100948.69;5051263;28;20185;-76
2023/05/27 05:45:03;;;;;;;9.17;4.30;;;;;;;16.72;73.50;100932.00;5068361;28;20201;-76
2023/05/27 05:47:28;;;;;;;10.37;4.37;;;;;;;16.70;73.12;100932.94;5051146;28;20216;-79
2023/05/27 05:49:53;;;;;;;15.37;5.17;;;;;;;16.86;72.62;100936.91;5071300;28;20233;-75
2023/05/27 05:52:18;;;;;;;11.83;5.00;;;;;;;17.04;72.99;100933.00;5048652;28;20330;-77
2023/05/27 05:54:44;;;;;;;11.27;4.10;;;;;;;17.06;72.23;100939.06;5047223;28;20185;-76
2023/05/27 05:57:09;;;;;;;6.50;3.90;;;;;;;17.06;72.61;100927.75;5062772;28;20231;-76
2023/05/27 05:59:35;;;;;;;13.73;5.00;;;;;;;16.94;71.77;100928.88;5046269;28;20565;-77
2023/05/27 06:02:00;;;;;;;11.93;5.70;;;;;;;16.95;72.13;100929.75;5065405;28;20294;-79
2023/05/27 06:04:26;;;;;;;12.10;4.70;;;;;;;16.87;72.14;100925.56;5069325;28;20226;-76
2023/05/27 06:06:51;;;;;;;9.73;4.70;;;;;;;17.09;72.49;100932.91;5059812;28;20204;-76
2023/05/27 06:09:16;;;;;;;9.77;4.57;;;;;;;17.20;72.28;100924.75;5062841;28;20236;-77
2023/05/27 06:11:42;;;;;;;12.50;4.40;;;;;;;17.14;72.47;100931.00;5044098;28;20189;-76
2023/05/27 06:14:07;;;;;;;10.63;4.70;;;;;;;17.39;71.86;100919.91;5061003;28;20192;-78
2023/05/27 06:16:35;;;;;;;10.03;4.43;;;;;;;17.40;71.52;100933.84;5062350;28;20181;-76
2023/05/27 06:19:00;;;;;;;8.33;4.37;;;;;;;17.43;71.08;100925.91;5063546;28;21052;-76
2023/05/27 06:21:26;;;;;;;8.07;3.87;;;;;;;17.24;70.97;100925.56;5064646;28;20190;-76
2023/05/27 06:23:51;;;;;;;10.03;4.30;;;;;;;17.36;71.43;100933.91;5063516;28;20204;-77
2023/05/27 06:26:16;;;;;;;11.43;4.60;;;;;;;17.46;71.33;100928.44;5046422;28;20227;-75
2023/05/27 06:28:42;;;;;;;10.03;4.13;;;;;;;17.54;71.42;100930.84;5063769;28;20292;-77
2023/05/27 06:31:07;;;;;;;11.30;4.40;;;;;;;17.60;70.66;100931.53;5072579;28;20201;-76
2023/05/27 06:33:32;;;;;;;8.97;4.70;;;;;;;17.57;70.32;100922.88;5070459;28;20213;-76
2023/05/27 06:35:58;;;;;;;9.60;4.90;;;;;;;17.74;70.38;100923.28;5065645;28;20211;-77
2023/05/27 06:38:23;;;;;;;11.40;4.10;;;;;;;17.66;70.49;100933.13;5062799;28;20216;-76
2023/05/27 06:40:49;;;;;;;11.17;4.43;;;;;;;17.62;70.42;100934.09;5070271;28;20185;-76
2023/05/27 06:43:14;;;;;;;8.90;5.07;;;;;;;17.76;70.53;100933.72;5068919;28;20193;-78
2023/05/27 06:45:40;;;;;;;11.17;4.50;;;;;;;18.18;69.56;100922.91;5062787;28;20786;-77
2023/05/27 06:48:07;;;;;;;10.00;3.90;;;;;;;18.38;69.19;100926.66;5062693;28;20741;-77
2023/05/27 06:50:32;;;;;;;8.10;3.87;;;;;;;18.36;69.52;100929.31;5047674;28;20190;-77
2023/05/27 06:52:58;;;;;;;11.20;4.77;;;;;;;18.32;69.39;100929.47;5063302;28;20267;-77
2023/05/27 06:55:23;;;;;;;10.80;4.67;;;;;;;18.45;69.21;100935.19;5066331;28;20192;-78
2023/05/27 06:57:48;;;;;;;10.23;4.73;;;;;;;18.43;69.21;100938.72;5063995;28;20663;-77
2023/05/27 07:00:14;;;;;;;9.77;4.53;;;;;;;18.20;69.98;100928.97;5045851;28;20201;-76
2023/05/27 07:02:40;;;;;;;10.63;4.63;;;;;;;18.18;69.82;100929.88;5044215;28;20185;-77
2023/05/27 07:05:05;;;;;;;10.97;4.40;;;;;;;18.38;69.37;100926.66;5063471;28;20209;-76
2023/05/27 07:07:31;;;;;;;14.03;5.10;;;;;;;18.20;69.00;100928.97;5064712;28;20186;-77
2023/05/27 07:09:56;;;;;;;8.83;4.03;;;;;;;18.36;69.12;100925.88;5061813;28;20201;-77
2023/05/27 07:12:23;;;;;;;8.53;3.97;;;;;;;18.62;69.46;100919.78;5063388;28;20522;-76
2023/05/27 07:14:48;;;;;;;9.80;4.47;;;;;;;18.55;69.17;100936.63;5067355;28;22088;-76
2023/05/27 07:17:14;;;;;;;9.93;4.77;;;;;;;18.45;68.93;100935.19;5070243;28;20201;-75
2023/05/27 07:19:39;;;;;;;10.87;4.70;;;;;;;18.50;69.39;100930.66;5053070;28;20201;-76
2023/05/27 07:22:05;;;;;;;11.37;4.40;;;;;;;18.56;69.69;100926.06;5068406;28;20216;-77
2023/05/27 07:24:32;;;;;;;8.00;4.47;;;;;;;18.61;69.00;100935.56;5067407;28;20237;-76
2023/05/27 07:26:57;;;;;;;12.53;5.30;;;;;;;18.45;69.14;100938.66;5053290;28;20200;-76
2023/05/27 07:29:23;;;;;;;9.07;4.63;;;;;;;18.47;69.38;100938.59;5050783;28;20420;-77
2023/05/27 07:31:48;;;;;;;9.57;4.33;;;;;;;18.27;69.61;100937.50;5073458;28;20204;-77
2023/05/27 07:34:13;;;;;;;11.03;5.33;;;;;;;18.46;69.47;100934.28;5073647;28;20193;-77
2023/05/27 07:36:39;;;;;;;11.60;4.40;;;;;;;18.35;70.03;100919.75;5069210;28;20650;-75
2023/05/27 07:39:04;;;;;;;9.60;4.73;;;;;;;18.52;69.99;100920.97;5067776;28;20209;-76
2023/05/27 07:41:29;;;;;;;9.27;4.50;;;;;;;18.58;70.31;100916.41;5053908;28;20202;-74
2023/05/27 07:43:56;;;;;;;7.87;4.83;;;;;;;18.49;69.76;100927.19;5054099;28;20200;-75
2023/05/27 07:46:21;;;;;;;9.97;4.77;;;;;;;18.66;69.93;100917.94;5069593;28;20514;-75
2023/05/27 07:48:47;;;;;;;12.40;5.37;;;;;;;18.73;69.43;100915.06;5073616;28;20216;-78
2023/05/27 07:51:12;;;;;;;11.53;4.77;;;;;;;18.73;69.98;100916.81;5069049;28;20189;-76
2023/05/27 07:53:38;;;;;;;12.43;4.93;;;;;;;18.61;70.06;100920.69;5070386;28;20195;-74
2023/05/27 07:56:03;;;;;;;12.10;4.80;;;;;;;18.67;69.42;100910.00;5073433;28;20197;-74
2023/05/27 07:58:28;;;;;;;9.93;4.60;;;;;;;18.75;69.41;100894.00;5050810;28;20229;-75
2023/05/27 08:00:54;;;;;;;11.50;5.20;;;;;;;18.74;69.46;100924.63;5050247;28;20217;-76
2023/05/27 08:03:20;;;;;;;10.40;4.87;;;;;;;18.94;69.29;100890.78;5057793;28;20567;-76
2023/05/27 08:05:45;;;;;;;10.03;4.90;;;;;;;19.09;69.18;100892.03;5071061;28;20668;-75
2023/05/27 08:08:11;;;;;;;8.13;4.67;;;;;;;19.12;69.55;100895.44;5052913;28;20192;-78
2023/05/27 08:10:37;;;;;;;11.50;5.20;;;;;;;19.16;68.91;100878.63;5068714;28;20238;-75
2023/05/27 08:13:02;;;;;;;8.70;4.47;;;;;;;19.23;68.33;100892.41;5072382;28;20204;-75
2023/05/27 08:15:27;;;;;;;9.77;4.47;;;;;;;18.98;70.16;100888.03;5072244;28;20189;-76
2023/05/27 08:17:53;;;;;;;9.80;4.50;;;;;;;19.08;68.98;100872.81;5056322;28;20644;-76
2023/05/27 08:20:18;;;;;;;10.27;4.73;;;;;;;19.19;69.46;100872.44;5070774;28;20197;-75
2023/05/27 08:22:45;;;;;;;9.10;4.60;;;;;;;19.23;68.42;100866.16;5053294;28;20192;-77
2023/05/27 08:25:11;;;;;;;10.27;4.67;;;;;;;19.26;69.41;100870.47;5054511;28;20208;-74
2023/05/27 08:27:50;;;;;;;9.70;4.20;;;;;;;19.55;68.53;100868.53;5067013;28;20186;-77
2023/05/27 08:30:17;;;;;;;10.90;4.70;;;;;;;19.64;68.70;100865.56;5057579;28;20201;-76
2023/05/27 08:32:42;;;;;;;10.47;4.60;;;;;;;19.62;68.23;100862.13;5051117;28;20193;-74
2023/05/27 08:35:08;;;;;;;9.00;4.27;;;;;;;19.66;68.62;100861.09;5050949;28;20189;-76
2023/05/27 08:37:34;;;;;;;10.07;4.50;;;;;;;19.58;68.60;100860.56;5071181;28;20243;-76
2023/05/27 08:39:59;;;;;;;7.63;4.10;;;;;;;19.53;68.94;100854.59;5069729;28;20212;-76
2023/05/27 08:42:25;;;;;;;10.93;4.13;;;;;;;19.66;68.54;100853.22;5069474;28;20181;-76
2023/05/27 08:44:51;;;;;;;11.07;4.87;;;;;;;19.64;68.31;100852.44;5068964;28;20218;-75
2023/05/27 08:47:17;;;;;;;8.33;4.30;;;;;;;19.56;69.10;100865.00;5054680;28;20192;-76
2023/05/27 08:49:42;;;;;;;9.50;4.60;;;;;;;19.52;69.00;100856.34;5067453;28;20220;-77
2023/05/27 08:52:10;;;;;;;10.53;4.80;;;;;;;19.54;69.14;100854.53;5069300;28;20184;-77
2023/05/27 08:54:37;;;;;;;8.33;4.37;;;;;;;19.62;69.31;100849.00;5080669;28;20272;-77
2023/05/27 08:57:07;;;;;;;13.27;4.13;;;;;;;19.63;68.78;100851.59;5082509;28;20381;-77
2023/05/27 08:59:35;;;;;;;10.73;4.43;;;;;;;19.68;69.70;100846.16;5061409;28;20205;-76
2023/05/27 09:02:02;;;;;;;12.20;5.27;;;;;;;19.72;69.01;100846.88;5058340;28;20193;-76
2023/05/27 09:04:28;;;;;;;11.63;5.60;;;;;;;19.74;68.91;100845.06;5071648;28;20795;-76
2023/05/27 09:06:53;;;;;;;8.00;4.80;;;;;;;19.66;68.50;100840.09;5070022;28;22319;-75
2023/05/27 09:09:19;;;;;;;11.57;5.30;;;;;;;19.76;69.24;100844.06;5072700;28;20204;-75
2023/05/27 09:11:44;;;;;;;10.10;5.30;;;;;;;19.82;69.31;100832.47;5056702;28;20285;-75
2023/05/27 09:14:20;;;;;;;10.27;4.67;;;;;;;19.89;68.80;100828.72;5079370;28;20258;-76
2023/05/27 09:16:46;;;;;;;12.93;5.60;;;;;;;19.83;68.75;100847.31;5077904;28;20205;-77
2023/05/27 09:19:18;;;;;;;9.27;4.13;;;;;;;19.75;69.47;100857.28;5076892;28;20221;-76
2023/05/27 09:21:43;;;;;;;13.17;5.37;;;;;;;19.65;69.80;100856.75;5074588;28;20654;-77
2023/05/27 09:24:12;;;;;;;11.63;5.00;;;;;;;19.62;69.28;100831.50;5057445;28;20183;-77
2023/05/27 09:26:38;;;;;;;10.97;4.60;;;;;;;19.63;69.85;100829.72;5073521;28;20659;-77
2023/05/27 09:29:07;;;;;;;10.80;4.73;;;;;;;19.75;69.80;100825.75;5069575;28;20278;-76
2023/05/27 09:31:39;;;;;;;10.90;4.87;;;;;;;19.96;70.00;100831.97;5068539;28;22151;-77
2023/05/27 09:34:12;;;;;;;10.03;4.63;;;;;;;20.09;69.13;100841.06;5069206;28;20181;-76
2023/05/27 09:36:45;;;;;;;10.53;4.77;;;;;;;20.02;69.93;100828.25;5057003;28;20629;-75
2023/05/27 09:39:11;;;;;;;10.83;5.10;;;;;;;20.07;69.71;100827.13;5069294;28;20205;-76
2023/05/27 09:41:38;;;;;;;14.67;5.40;;;;;;;20.13;69.14;100817.31;5051609;28;20185;-76
2023/05/27 09:44:07;;;;;;;9.47;4.57;;;;;;;20.19;69.63;100828.44;5073284;28;20189;-77
2023/05/27 09:46:33;;;;;;;10.90;4.43;;;;;;;20.22;69.00;100817.78;5068199;28;20221;-76
2023/05/27 09:48:59;;;;;;;10.50;5.20;;;;;;;20.25;68.69;100830.81;5053302;28;20311;-76
2023/05/27 09:51:26;;;;;;;11.73;4.97;;;;;;;20.20;68.74;100831.91;5068268;28;20200;-77
2023/05/27 09:53:56;;;;;;;11.97;5.87;;;;;;;20.21;68.74;100818.72;5065623;28;20195;-75
2023/05/27 09:56:24;;;;;;;13.23;5.37;;;;;;;20.27;70.62;100828.13;5053520;28;20200;-77
2023/05/27 09:58:50;;;;;;;8.10;4.47;;;;;;;20.29;69.17;100807.00;5072498;28;20209;-76
2023/05/27 10:01:17;;;;;;;10.60;5.17;;;;;;;20.39;68.65;100816.25;5052791;28;20228;-77
2023/05/27 10:03:44;;;;;;;8.67;4.80;;;;;;;20.28;68.67;100824.56;5050701;28;20203;-76
2023/05/27 10:06:15;;;;;;;11.20;5.30;;;;;;;20.28;69.71;100818.44;5055770;28;20216;-77
2023/05/27 10:08:42;;;;;;;9.90;5.33;;;;;;;20.34;68.50;100821.69;5053414;28;20441;-76
2023/05/27 10:11:09;;;;;;;12.80;5.53;;;;;;;20.35;69.32;100802.34;5068161;28;20178;-77
2023/05/27 10:13:35;;;;;;;9.97;4.97;;;;;;;20.45;69.27;100815.97;5052391;28;20196;-76
2023/05/27 10:16:01;;;;;;;10.83;5.27;;;;;;;20.62;69.44;100799.50;5068229;28;20213;-76
2023/05/27 10:18:29;;;;;;;9.57;4.77;;;;;;;20.69;68.91;100803.56;5053307;28;20376;-77
2023/05/27 10:20:57;;;;;;;13.93;5.03;;;;;;;20.72;69.47;100794.69;5071576;28;20197;-78
2023/05/27 10:23:26;;;;;;;9.23;5.10;;;;;;;20.82;68.57;100809.19;5054035;28;20784;-76
2023/05/27 10:25:56;;;;;;;9.80;5.03;;;;;;;20.84;68.74;100801.22;5071063;28;20212;-74
2023/05/27 10:28:31;;;;;;;13.10;5.50;;;;;;;20.83;69.04;100810.03;5065301;28;20661;-77
2023/05/27 10:31:11;;;;;;;9.63;5.10;;;;;;;20.86;69.54;100792.34;5068029;28;20613;-77
2023/05/27 10:33:38;;;;;;;9.00;5.00;;;;;;;20.83;69.23;100789.84;5070544;28;20238;-76
2023/05/27 10:36:11;;;;;;;9.27;5.50;;;;;;;20.95;69.03;100795.47;5069524;28;20268;-76
2023/05/27 10:38:37;;;;;;;8.83;4.97;;;;;;;20.94;68.71;100793.78;5051933;28;20503;-76
2023/05/27 10:41:05;;;;;;;9.27;5.17;;;;;;;20.91;69.24;100783.38;5052663;28;20656;-77
2023/05/27 10:43:32;;;;;;;11.27;5.30;;;;;;;21.08;68.72;100774.75;5071634;28;20272;-76
2023/05/27 10:46:07;;;;;;;9.90;4.93;;;;;;;21.20;69.53;100781.22;5056824;28;20232;-76
2023/05/27 10:48:33;;;;;;;9.73;4.87;;;;;;;21.27;69.36;100780.84;5052093;28;20833;-75
2023/05/27 10:50:59;;;;;;;10.23;5.60;;;;;;;21.29;69.00;100779.00;5066517;28;20182;-78
2023/05/27 10:53:28;;;;;;;10.60;5.33;;;;;;;21.32;68.07;100781.50;5070324;28;20196;-77
2023/05/27 10:55:54;;;;;;;9.57;5.27;;;;;;;21.42;67.82;100786.34;5057304;28;20204;-76
2023/05/27 10:58:20;;;;;;;10.17;5.10;;;;;;;21.31;69.12;100782.44;5070687;28;20182;-76
2023/05/27 11:00:49;;;;;;;9.23;4.83;;;;;;;21.40;69.16;100781.16;5072939;28;20246;-78
2023/05/27 11:03:26;;;;;;;9.67;5.30;;;;;;;21.40;68.57;100769.78;5073769;28;20659;-76
2023/05/27 11:05:58;;;;;;;11.93;5.63;;;;;;;21.33;68.13;100779.72;5069730;28;20223;-75
2023/05/27 11:08:24;;;;;;;9.67;5.23;;;;;;;21.48;68.17;100767.63;5071805;28;20437;-75
2023/05/27 11:10:49;;;;;;;8.50;5.17;;;;;;;21.57;67.65;100775.09;5053735;28;20189;-76
2023/05/27 11:13:15;;;;;;;9.70;5.23;;;;;;;21.56;68.36;100767.28;5058023;28;20185;-76
2023/05/27 11:15:41;;;;;;;10.27;5.30;;;;;;;21.44;67.97;100766.94;5053196;28;20593;-77
2023/05/27 11:18:07;;;;;;;11.20;5.10;;;;;;;21.51;68.26;100753.47;5072261;28;20189;-76